Aérodrome :
LOGIN :

S'inscrire | Disclaimer

   EN    FR    IT 

 










Légende :    VFR   VFR Marginal   IFR   IFR Intensif   IFR Très Intensif
Visi : 
Plafond : 
>= 8 km
>= 3000ft
5 à 8 km
1000 à 3000 ft
1500m à 5 km
500 à 1000 ft
800 à 1500m
200 à 500 ft
< 800m
< 200 ft
Symboles :   Orages  Brouillard  Fortes neiges  Fortes précipitations  Vent > 20 kt
SIGMETs :   Divers  Orages  Givrage  Turbulence  Onde Orograph.  Cendres Volcan.






- Altitude de l'aérodrome : 256 ft
- Code IATA : CFR


LFRK - Caen

DERNIER METAR :
  • 122000Z AUTO 11005KT 9999 FEW007 BKN120 20/19 Q1012 TEMPO SHRA SCT040CB

METARs EXPIRÉS :
  • 121930Z AUTO 08004KT CAVOK 20/19 Q1012 TEMPO SHRA SCT040CB
  • 121900Z AUTO 34007KT 310V010 CAVOK 20/19 Q1011 TEMPO SHRA SCT040CB
  • 121830Z AUTO 35009KT 320V020 9999 ///TCU 21/19 Q1011 TEMPO SHRA SCT040CB
  • 121800Z AUTO 33010KT 9999 -RA ///TCU 21/19 Q1011 TEMPO VRB20G40KT 2000 TSRAGR BECMG SCT060CB BKN100
  • 121730Z AUTO 32013KT 9999 -RA ///CB 21/19 Q1012 TEMPO VRB20G40KT 2000 TSRAGR

TAF TAF LFRK
Valide du 12 à 15h jusqu'au 13 à 00h UTC


121400Z 1215/1224 36008KT 9999 SCT060CB BKN100
TEMPO 1215/1219 4000 TSRA BKN060CB
PROB40
TEMPO 1215/1219 VRB20G40KT 2000 TSRAGR BKN060CB
BECMG 1220/1222 CAVOK
TEMPO 1220/1224 5000 SHRA SCT040CB
Météo : +33 2 31 26 68 11



MET'MAP, la Météo Aéronautique d'un coup d'oeil ! - Copyright ORBIFLY Décembre 2007 - Disclaimer

ORBIFLY MET'MAP TEAM :

Programmation & Développement : Alexandra Zaïnal
Sur une idée originale de : Baudouin d'Aumeries
Assistance à la programmation : Marc-Olivier Méhu
Soutien technique & logistique : Manuel Goepfert

Contact : metmap@orbifly.com




SOURCES & CREDITS :

   NOAA